Aérodrome :
LOGIN :

S'inscrire | Disclaimer

   EN    FR    IT 

 










Légende :    VFR   VFR Marginal   IFR   IFR Intensif   IFR Très Intensif
Visi : 
Plafond : 
>= 8 km
>= 3000ft
5 à 8 km
1000 à 3000 ft
1500m à 5 km
500 à 1000 ft
800 à 1500m
200 à 500 ft
< 800m
< 200 ft
Symboles :   Orages  Brouillard  Fortes neiges  Fortes précipitations  Vent > 20 kt
SIGMETs :   Divers  Orages  Givrage  Turbulence  Onde Orograph.  Cendres Volcan.







- Altitude de l'aérodrome : 266 ft
- Code IATA : NCL
- Voir les cartes d'approche


EGNT - Newcastle

DERNIER METAR :
  • 201850Z 27009KT 9999 BKN014 11/09 Q1007

METARs EXPIRÉS :
  • 201820Z 27007KT 9999 SCT012 10/09 Q1006
  • 201750Z 29004KT 9999 SCT012 10/09 Q1006
  • 201720Z 27007KT 9999 SCT012 10/09 Q1006
  • 201650Z 28010KT 9999 SCT012 11/09 Q1006
  • 201620Z 27012KT 9999 SCT012 11/09 Q1006

TAF TAF EGNT
Valide du 20 à 18h jusqu'au 21 à 18h UTC


201655Z 2018/2118 VRB05KT 9999 SCT015
PROB40
TEMPO 2018/2102 4000 BR BKN004
TEMPO 2102/2110 4000 RADZ BKN004
PROB40
TEMPO 2102/2107 +RA BR BKN001
BECMG 2109/2112 23012KT
PROB40
TEMPO 2110/2114 6000 BKN008
ATIS : +44 191 214 3400
Pas de NOTAMs connus pour ce terrain.
1 SIGMET publié pour la FIR Scottish (EGPX) :
 
Givrage fort
EGPX SIGMET 05 VALID 201600/201900 EGRR
EGPX SCOTTISH FIR SEV ICE FCST WI N5905 W00446 - N5746 W00009 - N5637 W00132 - N5808 W00604 - N5905 W00446 FL030/100 STNR NC=



MET'MAP, la Météo Aéronautique d'un coup d'oeil ! - Copyright ORBIFLY Décembre 2007 - Disclaimer

ORBIFLY MET'MAP TEAM :

Programmation & Développement : Alexandra Zaïnal
Conception & Développement : Baudouin d'Aumeries
Co-Programmation & Développement : Marc-Olivier Méhu
Soutien technique & logistique : Manuel Goepfert

Contact : metmap@orbifly.com




SOURCES & CREDITS :

   NOAA